sensor_id;sensor_type;location;lat;lon;timestamp;P1;durP1;ratioP1;P2;durP2;ratioP2
17259;SDS011;8746;49.230;9.220;2023-09-19T00:00:33;2.67;;;1.80;;
17259;SDS011;8746;49.230;9.220;2023-09-19T00:02:59;2.17;;;1.60;;
17259;SDS011;8746;49.230;9.220;2023-09-19T00:05:25;4.73;;;1.70;;
17259;SDS011;8746;49.230;9.220;2023-09-19T00:07:53;4.20;;;1.53;;
17259;SDS011;8746;49.230;9.220;2023-09-19T00:10:23;2.03;;;1.83;;
17259;SDS011;8746;49.230;9.220;2023-09-19T00:12:55;2.83;;;1.70;;
17259;SDS011;8746;49.230;9.220;2023-09-19T00:15:23;4.50;;;2.10;;
17259;SDS011;8746;49.230;9.220;2023-09-19T00:17:51;2.07;;;1.80;;
17259;SDS011;8746;49.230;9.220;2023-09-19T00:20:20;7.20;;;1.73;;
17259;SDS011;8746;49.230;9.220;2023-09-19T00:22:47;5.13;;;2.17;;
17259;SDS011;8746;49.230;9.220;2023-09-19T00:25:14;4.20;;;2.13;;
17259;SDS011;8746;49.230;9.220;2023-09-19T00:27:40;3.20;;;1.77;;
17259;SDS011;8746;49.230;9.220;2023-09-19T00:30:07;4.03;;;1.87;;
17259;SDS011;8746;49.230;9.220;2023-09-19T00:32:39;2.73;;;1.80;;
17259;SDS011;8746;49.230;9.220;2023-09-19T00:35:05;3.60;;;1.63;;
17259;SDS011;8746;49.230;9.220;2023-09-19T00:37:30;6.37;;;2.20;;
17259;SDS011;8746;49.230;9.220;2023-09-19T00:39:56;2.87;;;1.90;;
17259;SDS011;8746;49.230;9.220;2023-09-19T00:42:21;5.87;;;2.10;;
17259;SDS011;8746;49.230;9.220;2023-09-19T00:44:47;4.57;;;1.73;;
17259;SDS011;8746;49.230;9.220;2023-09-19T00:47:16;3.33;;;1.90;;
17259;SDS011;8746;49.230;9.220;2023-09-19T00:49:42;7.13;;;2.10;;
17259;SDS011;8746;49.230;9.220;2023-09-19T00:52:09;4.23;;;1.80;;
17259;SDS011;8746;49.230;9.220;2023-09-19T00:54:36;3.70;;;1.90;;
17259;SDS011;8746;49.230;9.220;2023-09-19T00:57:01;6.60;;;2.27;;
17259;SDS011;8746;49.230;9.220;2023-09-19T00:59:27;3.80;;;1.97;;
17259;SDS011;8746;49.230;9.220;2023-09-19T01:01:55;6.40;;;2.30;;
17259;SDS011;8746;49.230;9.220;2023-09-19T01:04:21;5.80;;;2.07;;
17259;SDS011;8746;49.230;9.220;2023-09-19T01:06:47;5.73;;;1.50;;
17259;SDS011;8746;49.230;9.220;2023-09-19T01:09:18;5.70;;;1.70;;
17259;SDS011;8746;49.230;9.220;2023-09-19T01:11:43;4.90;;;1.60;;
17259;SDS011;8746;49.230;9.220;2023-09-19T01:14:15;3.93;;;1.40;;
17259;SDS011;8746;49.230;9.220;2023-09-19T01:16:50;2.57;;;1.63;;
17259;SDS011;8746;49.230;9.220;2023-09-19T01:19:32;6.17;;;1.60;;
17259;SDS011;8746;49.230;9.220;2023-09-19T01:22:06;2.97;;;1.30;;
17259;SDS011;8746;49.230;9.220;2023-09-19T01:30:27;4.87;;;1.80;;
17259;SDS011;8746;49.230;9.220;2023-09-19T01:32:58;6.03;;;1.70;;
17259;SDS011;8746;49.230;9.220;2023-09-19T01:35:24;2.37;;;1.23;;
17259;SDS011;8746;49.230;9.220;2023-09-19T01:37:50;3.97;;;1.40;;
17259;SDS011;8746;49.230;9.220;2023-09-19T01:40:17;3.70;;;1.30;;
17259;SDS011;8746;49.230;9.220;2023-09-19T01:42:50;2.03;;;1.50;;
17259;SDS011;8746;49.230;9.220;2023-09-19T01:48:20;3.73;;;1.30;;
17259;SDS011;8746;49.230;9.220;2023-09-19T01:51:02;3.93;;;1.73;;
17259;SDS011;8746;49.230;9.220;2023-09-19T01:53:35;5.10;;;1.50;;
17259;SDS011;8746;49.230;9.220;2023-09-19T01:56:08;1.33;;;1.20;;
17259;SDS011;8746;49.230;9.220;2023-09-19T01:58:45;1.80;;;1.40;;
17259;SDS011;8746;49.230;9.220;2023-09-19T02:01:15;1.97;;;1.40;;
17259;SDS011;8746;49.230;9.220;2023-09-19T02:03:43;6.07;;;1.70;;
17259;SDS011;8746;49.230;9.220;2023-09-19T02:06:17;3.00;;;1.50;;
17259;SDS011;8746;49.230;9.220;2023-09-19T02:08:44;3.87;;;1.70;;
17259;SDS011;8746;49.230;9.220;2023-09-19T02:11:10;3.83;;;1.30;;
17259;SDS011;8746;49.230;9.220;2023-09-19T02:13:36;2.37;;;1.27;;
17259;SDS011;8746;49.230;9.220;2023-09-19T02:16:02;2.30;;;1.33;;
17259;SDS011;8746;49.230;9.220;2023-09-19T02:18:29;2.50;;;1.40;;
17259;SDS011;8746;49.230;9.220;2023-09-19T02:20:55;2.40;;;1.37;;
17259;SDS011;8746;49.230;9.220;2023-09-19T02:23:21;4.47;;;1.90;;
17259;SDS011;8746;49.230;9.220;2023-09-19T02:25:53;2.03;;;1.40;;
17259;SDS011;8746;49.230;9.220;2023-09-19T02:28:21;4.23;;;1.60;;
17259;SDS011;8746;49.230;9.220;2023-09-19T02:30:47;2.50;;;1.20;;
17259;SDS011;8746;49.230;9.220;2023-09-19T02:33:14;1.27;;;1.17;;
17259;SDS011;8746;49.230;9.220;2023-09-19T02:35:39;2.47;;;1.20;;
17259;SDS011;8746;49.230;9.220;2023-09-19T02:38:05;1.30;;;1.20;;
17259;SDS011;8746;49.230;9.220;2023-09-19T02:40:32;3.17;;;1.10;;
17259;SDS011;8746;49.230;9.220;2023-09-19T02:43:00;1.93;;;1.20;;
17259;SDS011;8746;49.230;9.220;2023-09-19T02:45:27;2.00;;;1.17;;
17259;SDS011;8746;49.230;9.220;2023-09-19T02:47:53;1.37;;;1.17;;
17259;SDS011;8746;49.230;9.220;2023-09-19T02:50:19;1.87;;;1.40;;
17259;SDS011;8746;49.230;9.220;2023-09-19T02:52:45;3.53;;;1.40;;
17259;SDS011;8746;49.230;9.220;2023-09-19T02:55:15;2.10;;;1.40;;
17259;SDS011;8746;49.230;9.220;2023-09-19T02:57:51;1.50;;;1.40;;
17259;SDS011;8746;49.230;9.220;2023-09-19T03:00:21;2.33;;;1.27;;
17259;SDS011;8746;49.230;9.220;2023-09-19T03:02:48;2.50;;;1.20;;
17259;SDS011;8746;49.230;9.220;2023-09-19T03:05:18;1.20;;;1.10;;
17259;SDS011;8746;49.230;9.220;2023-09-19T03:07:43;3.27;;;1.10;;
17259;SDS011;8746;49.230;9.220;2023-09-19T03:10:12;1.70;;;1.07;;
17259;SDS011;8746;49.230;9.220;2023-09-19T03:12:37;3.10;;;1.17;;
17259;SDS011;8746;49.230;9.220;2023-09-19T03:15:05;1.70;;;1.30;;
17259;SDS011;8746;49.230;9.220;2023-09-19T03:17:31;1.57;;;1.30;;
17259;SDS011;8746;49.230;9.220;2023-09-19T03:19:57;1.40;;;1.30;;
17259;SDS011;8746;49.230;9.220;2023-09-19T03:22:23;1.70;;;1.30;;
17259;SDS011;8746;49.230;9.220;2023-09-19T03:24:49;2.60;;;1.30;;
17259;SDS011;8746;49.230;9.220;2023-09-19T03:27:15;2.10;;;1.17;;
17259;SDS011;8746;49.230;9.220;2023-09-19T03:29:41;2.27;;;1.07;;
17259;SDS011;8746;49.230;9.220;2023-09-19T03:32:07;4.20;;;1.90;;
17259;SDS011;8746;49.230;9.220;2023-09-19T03:34:35;1.77;;;1.20;;
17259;SDS011;8746;49.230;9.220;2023-09-19T03:37:08;1.37;;;1.27;;
17259;SDS011;8746;49.230;9.220;2023-09-19T03:39:34;1.63;;;1.33;;
17259;SDS011;8746;49.230;9.220;2023-09-19T03:42:00;1.50;;;1.30;;
17259;SDS011;8746;49.230;9.220;2023-09-19T03:44:26;1.37;;;1.27;;
17259;SDS011;8746;49.230;9.220;2023-09-19T03:46:51;1.47;;;1.27;;
17259;SDS011;8746;49.230;9.220;2023-09-19T03:49:16;1.40;;;1.27;;
17259;SDS011;8746;49.230;9.220;2023-09-19T03:51:42;3.30;;;1.57;;
17259;SDS011;8746;49.230;9.220;2023-09-19T03:54:07;3.77;;;1.50;;
17259;SDS011;8746;49.230;9.220;2023-09-19T03:56:33;2.33;;;1.27;;
17259;SDS011;8746;49.230;9.220;2023-09-19T03:58:58;1.30;;;1.20;;
17259;SDS011;8746;49.230;9.220;2023-09-19T04:01:24;1.60;;;1.50;;
17259;SDS011;8746;49.230;9.220;2023-09-19T04:03:49;2.70;;;1.43;;
17259;SDS011;8746;49.230;9.220;2023-09-19T04:06:16;2.87;;;1.70;;
17259;SDS011;8746;49.230;9.220;2023-09-19T04:08:43;3.70;;;1.70;;
17259;SDS011;8746;49.230;9.220;2023-09-19T04:11:09;3.47;;;1.53;;
17259;SDS011;8746;49.230;9.220;2023-09-19T04:13:35;2.50;;;1.60;;
17259;SDS011;8746;49.230;9.220;2023-09-19T04:16:01;2.87;;;1.43;;
17259;SDS011;8746;49.230;9.220;2023-09-19T04:18:28;3.33;;;1.80;;
17259;SDS011;8746;49.230;9.220;2023-09-19T04:20:56;4.87;;;2.30;;
17259;SDS011;8746;49.230;9.220;2023-09-19T04:23:21;5.63;;;2.27;;
17259;SDS011;8746;49.230;9.220;2023-09-19T04:25:46;2.33;;;2.10;;
17259;SDS011;8746;49.230;9.220;2023-09-19T04:28:12;2.10;;;1.90;;
17259;SDS011;8746;49.230;9.220;2023-09-19T04:30:37;2.00;;;1.90;;
17259;SDS011;8746;49.230;9.220;2023-09-19T04:33:05;2.80;;;2.07;;
17259;SDS011;8746;49.230;9.220;2023-09-19T04:35:31;3.90;;;2.20;;
17259;SDS011;8746;49.230;9.220;2023-09-19T04:37:57;2.17;;;2.00;;
17259;SDS011;8746;49.230;9.220;2023-09-19T04:40:22;2.73;;;1.83;;
17259;SDS011;8746;49.230;9.220;2023-09-19T04:42:58;2.90;;;2.00;;
17259;SDS011;8746;49.230;9.220;2023-09-19T04:45:24;2.30;;;2.10;;
17259;SDS011;8746;49.230;9.220;2023-09-19T04:47:53;3.67;;;2.20;;
17259;SDS011;8746;49.230;9.220;2023-09-19T04:50:19;2.43;;;2.23;;
17259;SDS011;8746;49.230;9.220;2023-09-19T04:52:50;3.33;;;2.40;;
17259;SDS011;8746;49.230;9.220;2023-09-19T04:55:18;3.53;;;2.30;;
17259;SDS011;8746;49.230;9.220;2023-09-19T04:57:44;3.53;;;2.60;;
17259;SDS011;8746;49.230;9.220;2023-09-19T05:00:11;3.70;;;2.60;;
17259;SDS011;8746;49.230;9.220;2023-09-19T05:02:40;5.03;;;2.67;;
17259;SDS011;8746;49.230;9.220;2023-09-19T05:05:07;4.20;;;3.00;;
17259;SDS011;8746;49.230;9.220;2023-09-19T05:07:33;5.37;;;2.50;;
17259;SDS011;8746;49.230;9.220;2023-09-19T05:09:59;3.43;;;2.40;;
17259;SDS011;8746;49.230;9.220;2023-09-19T05:12:25;3.30;;;2.50;;
17259;SDS011;8746;49.230;9.220;2023-09-19T05:14:51;2.60;;;2.40;;
17259;SDS011;8746;49.230;9.220;2023-09-19T05:17:16;3.53;;;2.27;;
17259;SDS011;8746;49.230;9.220;2023-09-19T05:19:42;5.27;;;2.47;;
17259;SDS011;8746;49.230;9.220;2023-09-19T05:22:07;2.73;;;2.20;;
17259;SDS011;8746;49.230;9.220;2023-09-19T05:24:33;2.40;;;2.23;;
17259;SDS011;8746;49.230;9.220;2023-09-19T05:26:58;2.97;;;2.10;;
17259;SDS011;8746;49.230;9.220;2023-09-19T05:29:24;5.27;;;2.13;;
17259;SDS011;8746;49.230;9.220;2023-09-19T05:31:49;2.77;;;1.90;;
17259;SDS011;8746;49.230;9.220;2023-09-19T05:34:16;2.63;;;1.90;;
17259;SDS011;8746;49.230;9.220;2023-09-19T05:36:41;1.93;;;1.80;;
17259;SDS011;8746;49.230;9.220;2023-09-19T05:39:07;3.23;;;1.90;;
17259;SDS011;8746;49.230;9.220;2023-09-19T05:41:34;2.03;;;1.73;;
17259;SDS011;8746;49.230;9.220;2023-09-19T05:44:02;3.50;;;2.00;;
17259;SDS011;8746;49.230;9.220;2023-09-19T05:46:31;3.73;;;1.93;;
17259;SDS011;8746;49.230;9.220;2023-09-19T05:48:57;4.13;;;1.70;;
17259;SDS011;8746;49.230;9.220;2023-09-19T05:51:22;3.30;;;1.77;;
17259;SDS011;8746;49.230;9.220;2023-09-19T05:53:48;2.63;;;1.80;;
17259;SDS011;8746;49.230;9.220;2023-09-19T05:56:14;2.77;;;1.60;;
17259;SDS011;8746;49.230;9.220;2023-09-19T05:58:39;1.77;;;1.67;;
17259;SDS011;8746;49.230;9.220;2023-09-19T06:01:07;2.03;;;1.77;;
17259;SDS011;8746;49.230;9.220;2023-09-19T06:03:34;2.13;;;1.67;;
17259;SDS011;8746;49.230;9.220;2023-09-19T06:06:00;3.03;;;1.52;;
17259;SDS011;8746;49.230;9.220;2023-09-19T06:08:26;3.53;;;1.77;;
17259;SDS011;8746;49.230;9.220;2023-09-19T06:10:51;3.33;;;1.80;;
17259;SDS011;8746;49.230;9.220;2023-09-19T06:13:17;2.55;;;1.95;;
17259;SDS011;8746;49.230;9.220;2023-09-19T06:15:43;10.52;;;4.65;;
17259;SDS011;8746;49.230;9.220;2023-09-19T06:18:10;14.48;;;5.57;;
17259;SDS011;8746;49.230;9.220;2023-09-19T06:20:38;5.77;;;2.53;;
17259;SDS011;8746;49.230;9.220;2023-09-19T06:23:09;3.45;;;1.90;;
17259;SDS011;8746;49.230;9.220;2023-09-19T06:25:34;2.30;;;2.10;;
17259;SDS011;8746;49.230;9.220;2023-09-19T06:28:00;2.75;;;1.70;;
17259;SDS011;8746;49.230;9.220;2023-09-19T06:30:30;6.63;;;1.90;;
17259;SDS011;8746;49.230;9.220;2023-09-19T06:32:59;3.90;;;2.28;;
17259;SDS011;8746;49.230;9.220;2023-09-19T06:35:25;5.40;;;2.22;;
17259;SDS011;8746;49.230;9.220;2023-09-19T06:37:51;4.97;;;2.00;;
17259;SDS011;8746;49.230;9.220;2023-09-19T06:40:17;6.30;;;2.50;;
17259;SDS011;8746;49.230;9.220;2023-09-19T06:42:45;2.53;;;2.20;;
17259;SDS011;8746;49.230;9.220;2023-09-19T06:45:13;3.47;;;2.13;;
17259;SDS011;8746;49.230;9.220;2023-09-19T06:47:43;3.90;;;2.00;;
17259;SDS011;8746;49.230;9.220;2023-09-19T06:50:10;3.97;;;2.40;;
17259;SDS011;8746;49.230;9.220;2023-09-19T06:52:39;4.22;;;2.75;;
17259;SDS011;8746;49.230;9.220;2023-09-19T06:55:05;3.50;;;2.27;;
17259;SDS011;8746;49.230;9.220;2023-09-19T06:57:31;2.80;;;1.95;;
17259;SDS011;8746;49.230;9.220;2023-09-19T06:59:57;3.55;;;2.00;;
17259;SDS011;8746;49.230;9.220;2023-09-19T07:02:22;4.75;;;2.00;;
17259;SDS011;8746;49.230;9.220;2023-09-19T07:04:47;3.00;;;2.60;;
17259;SDS011;8746;49.230;9.220;2023-09-19T07:07:14;2.93;;;2.30;;
17259;SDS011;8746;49.230;9.220;2023-09-19T07:09:40;3.97;;;2.47;;
17259;SDS011;8746;49.230;9.220;2023-09-19T07:12:05;2.97;;;2.33;;
17259;SDS011;8746;49.230;9.220;2023-09-19T07:14:31;3.20;;;2.60;;
17259;SDS011;8746;49.230;9.220;2023-09-19T07:16:57;4.82;;;3.13;;
17259;SDS011;8746;49.230;9.220;2023-09-19T07:19:24;3.75;;;3.45;;
17259;SDS011;8746;49.230;9.220;2023-09-19T07:21:50;3.80;;;3.50;;
17259;SDS011;8746;49.230;9.220;2023-09-19T07:24:15;4.25;;;3.63;;
17259;SDS011;8746;49.230;9.220;2023-09-19T07:26:40;4.13;;;3.70;;
17259;SDS011;8746;49.230;9.220;2023-09-19T07:29:05;4.23;;;3.83;;
17259;SDS011;8746;49.230;9.220;2023-09-19T07:31:32;4.53;;;4.13;;
17259;SDS011;8746;49.230;9.220;2023-09-19T07:33:58;5.67;;;3.70;;
17259;SDS011;8746;49.230;9.220;2023-09-19T07:36:24;3.90;;;3.60;;
17259;SDS011;8746;49.230;9.220;2023-09-19T07:38:49;4.60;;;3.78;;
17259;SDS011;8746;49.230;9.220;2023-09-19T07:41:15;4.25;;;3.60;;
17259;SDS011;8746;49.230;9.220;2023-09-19T07:43:40;5.85;;;3.50;;
17259;SDS011;8746;49.230;9.220;2023-09-19T07:46:06;2.70;;;2.50;;
17259;SDS011;8746;49.230;9.220;2023-09-19T07:48:32;3.10;;;2.83;;
17259;SDS011;8746;49.230;9.220;2023-09-19T07:51:02;3.80;;;2.80;;
17259;SDS011;8746;49.230;9.220;2023-09-19T07:53:32;3.63;;;2.83;;
17259;SDS011;8746;49.230;9.220;2023-09-19T07:56:08;3.88;;;2.70;;
17259;SDS011;8746;49.230;9.220;2023-09-19T07:58:35;3.35;;;2.10;;
17259;SDS011;8746;49.230;9.220;2023-09-19T08:01:05;3.75;;;2.15;;
17259;SDS011;8746;49.230;9.220;2023-09-19T08:03:32;6.47;;;2.08;;
17259;SDS011;8746;49.230;9.220;2023-09-19T08:05:58;3.93;;;1.93;;
17259;SDS011;8746;49.230;9.220;2023-09-19T08:08:25;2.10;;;1.90;;
17259;SDS011;8746;49.230;9.220;2023-09-19T08:10:55;3.92;;;2.20;;
17259;SDS011;8746;49.230;9.220;2023-09-19T08:13:21;4.18;;;1.83;;
17259;SDS011;8746;49.230;9.220;2023-09-19T08:15:51;3.85;;;1.80;;
17259;SDS011;8746;49.230;9.220;2023-09-19T08:18:18;2.88;;;1.73;;
17259;SDS011;8746;49.230;9.220;2023-09-19T08:20:48;5.38;;;1.67;;
17259;SDS011;8746;49.230;9.220;2023-09-19T08:23:15;3.20;;;1.50;;
17259;SDS011;8746;49.230;9.220;2023-09-19T08:25:43;3.28;;;1.80;;
17259;SDS011;8746;49.230;9.220;2023-09-19T08:28:08;3.33;;;1.55;;
17259;SDS011;8746;49.230;9.220;2023-09-19T08:30:37;1.95;;;1.33;;
17259;SDS011;8746;49.230;9.220;2023-09-19T08:33:02;1.85;;;1.40;;
17259;SDS011;8746;49.230;9.220;2023-09-19T08:35:29;2.70;;;1.60;;
17259;SDS011;8746;49.230;9.220;2023-09-19T08:37:55;3.63;;;1.52;;
17259;SDS011;8746;49.230;9.220;2023-09-19T08:40:21;2.35;;;1.35;;
17259;SDS011;8746;49.230;9.220;2023-09-19T08:45:19;3.05;;;1.20;;
17259;SDS011;8746;49.230;9.220;2023-09-19T08:48:10;1.90;;;1.33;;
17259;SDS011;8746;49.230;9.220;2023-09-19T08:51:10;2.25;;;1.33;;
17259;SDS011;8746;49.230;9.220;2023-09-19T08:53:52;3.65;;;1.42;;
17259;SDS011;8746;49.230;9.220;2023-09-19T08:56:24;2.03;;;1.20;;
17259;SDS011;8746;49.230;9.220;2023-09-19T08:58:55;2.38;;;1.10;;
17259;SDS011;8746;49.230;9.220;2023-09-19T09:01:25;2.28;;;1.33;;
17259;SDS011;8746;49.230;9.220;2023-09-19T09:03:54;1.60;;;1.50;;
17259;SDS011;8746;49.230;9.220;2023-09-19T09:06:20;2.45;;;1.17;;
17259;SDS011;8746;49.230;9.220;2023-09-19T09:08:46;1.92;;;1.10;;
17259;SDS011;8746;49.230;9.220;2023-09-19T09:11:15;1.98;;;1.40;;
17259;SDS011;8746;49.230;9.220;2023-09-19T09:13:42;3.15;;;1.23;;
17259;SDS011;8746;49.230;9.220;2023-09-19T09:16:09;1.50;;;1.20;;
17259;SDS011;8746;49.230;9.220;2023-09-19T09:18:35;2.65;;;1.45;;
17259;SDS011;8746;49.230;9.220;2023-09-19T09:21:01;1.23;;;1.13;;
17259;SDS011;8746;49.230;9.220;2023-09-19T09:23:26;3.97;;;1.45;;
17259;SDS011;8746;49.230;9.220;2023-09-19T09:25:54;3.05;;;1.75;;
17259;SDS011;8746;49.230;9.220;2023-09-19T09:28:27;2.08;;;1.42;;
17259;SDS011;8746;49.230;9.220;2023-09-19T09:30:56;2.58;;;1.30;;
17259;SDS011;8746;49.230;9.220;2023-09-19T09:33:37;1.80;;;1.27;;
17259;SDS011;8746;49.230;9.220;2023-09-19T09:36:03;2.17;;;1.48;;
17259;SDS011;8746;49.230;9.220;2023-09-19T09:38:42;2.58;;;1.50;;
17259;SDS011;8746;49.230;9.220;2023-09-19T09:41:10;3.67;;;1.90;;
17259;SDS011;8746;49.230;9.220;2023-09-19T09:43:40;4.57;;;1.70;;
17259;SDS011;8746;49.230;9.220;2023-09-19T09:51:48;3.38;;;1.50;;
17259;SDS011;8746;49.230;9.220;2023-09-19T09:54:25;3.85;;;2.30;;
17259;SDS011;8746;49.230;9.220;2023-09-19T09:57:07;1.63;;;1.50;;
17259;SDS011;8746;49.230;9.220;2023-09-19T10:05:10;3.83;;;1.65;;
17259;SDS011;8746;49.230;9.220;2023-09-19T10:07:52;3.97;;;1.67;;
17259;SDS011;8746;49.230;9.220;2023-09-19T10:13:03;2.83;;;1.30;;
17259;SDS011;8746;49.230;9.220;2023-09-19T10:15:32;2.25;;;0.95;;
17259;SDS011;8746;49.230;9.220;2023-09-19T10:18:01;2.92;;;1.20;;
17259;SDS011;8746;49.230;9.220;2023-09-19T10:20:29;2.50;;;1.30;;
17259;SDS011;8746;49.230;9.220;2023-09-19T10:22:55;3.13;;;1.42;;
17259;SDS011;8746;49.230;9.220;2023-09-19T10:25:26;1.70;;;1.10;;
17259;SDS011;8746;49.230;9.220;2023-09-19T10:27:53;2.45;;;1.30;;
17259;SDS011;8746;49.230;9.220;2023-09-19T10:30:20;3.00;;;1.27;;
17259;SDS011;8746;49.230;9.220;2023-09-19T10:32:50;1.45;;;1.00;;
17259;SDS011;8746;49.230;9.220;2023-09-19T10:35:23;2.05;;;1.20;;
17259;SDS011;8746;49.230;9.220;2023-09-19T10:37:49;4.35;;;1.50;;
17259;SDS011;8746;49.230;9.220;2023-09-19T10:40:16;3.20;;;1.40;;
17259;SDS011;8746;49.230;9.220;2023-09-19T10:42:46;5.20;;;1.30;;
17259;SDS011;8746;49.230;9.220;2023-09-19T10:45:15;1.48;;;1.20;;
17259;SDS011;8746;49.230;9.220;2023-09-19T10:47:42;1.67;;;0.80;;
17259;SDS011;8746;49.230;9.220;2023-09-19T10:50:08;2.35;;;0.90;;
17259;SDS011;8746;49.230;9.220;2023-09-19T10:52:37;2.30;;;1.42;;
17259;SDS011;8746;49.230;9.220;2023-09-19T10:55:07;2.88;;;1.40;;
17259;SDS011;8746;49.230;9.220;2023-09-19T10:57:35;3.15;;;1.52;;
17259;SDS011;8746;49.230;9.220;2023-09-19T11:00:05;2.63;;;1.45;;
17259;SDS011;8746;49.230;9.220;2023-09-19T11:05:40;2.45;;;1.30;;
17259;SDS011;8746;49.230;9.220;2023-09-19T11:08:07;3.30;;;1.75;;
17259;SDS011;8746;49.230;9.220;2023-09-19T11:10:47;2.33;;;1.20;;
17259;SDS011;8746;49.230;9.220;2023-09-19T11:13:30;2.65;;;1.40;;
17259;SDS011;8746;49.230;9.220;2023-09-19T11:16:02;1.27;;;0.98;;
17259;SDS011;8746;49.230;9.220;2023-09-19T11:26:47;1.83;;;1.13;;
17259;SDS011;8746;49.230;9.220;2023-09-19T11:29:26;1.42;;;1.00;;
17259;SDS011;8746;49.230;9.220;2023-09-19T11:31:53;1.10;;;1.00;;
17259;SDS011;8746;49.230;9.220;2023-09-19T11:39:39;2.35;;;0.90;;
17259;SDS011;8746;49.230;9.220;2023-09-19T11:42:43;1.10;;;1.00;;
17259;SDS011;8746;49.230;9.220;2023-09-19T11:46:04;2.13;;;1.02;;
17259;SDS011;8746;49.230;9.220;2023-09-19T11:48:22;3.10;;;1.00;;
17259;SDS011;8746;49.230;9.220;2023-09-19T11:50:50;1.77;;;0.95;;
17259;SDS011;8746;49.230;9.220;2023-09-19T11:53:17;1.50;;;0.77;;
17259;SDS011;8746;49.230;9.220;2023-09-19T11:55:44;3.17;;;1.10;;
17259;SDS011;8746;49.230;9.220;2023-09-19T11:58:10;3.30;;;3.00;;
17259;SDS011;8746;49.230;9.220;2023-09-19T12:00:39;3.63;;;2.00;;
17259;SDS011;8746;49.230;9.220;2023-09-19T12:03:09;1.02;;;0.93;;
17259;SDS011;8746;49.230;9.220;2023-09-19T12:05:36;2.40;;;0.98;;
17259;SDS011;8746;49.230;9.220;2023-09-19T12:08:05;1.02;;;0.93;;
17259;SDS011;8746;49.230;9.220;2023-09-19T12:10:35;2.10;;;0.88;;
17259;SDS011;8746;49.230;9.220;2023-09-19T12:13:15;2.92;;;0.90;;
17259;SDS011;8746;49.230;9.220;2023-09-19T12:15:41;2.10;;;0.93;;
17259;SDS011;8746;49.230;9.220;2023-09-19T12:18:10;1.98;;;1.00;;
17259;SDS011;8746;49.230;9.220;2023-09-19T12:20:50;3.75;;;0.95;;
17259;SDS011;8746;49.230;9.220;2023-09-19T12:23:17;1.38;;;1.10;;
17259;SDS011;8746;49.230;9.220;2023-09-19T12:25:43;1.58;;;1.00;;
17259;SDS011;8746;49.230;9.220;2023-09-19T12:28:17;2.97;;;1.17;;
17259;SDS011;8746;49.230;9.220;2023-09-19T12:30:42;3.10;;;1.20;;
17259;SDS011;8746;49.230;9.220;2023-09-19T12:33:16;3.05;;;0.90;;
17259;SDS011;8746;49.230;9.220;2023-09-19T12:35:44;2.88;;;1.27;;
17259;SDS011;8746;49.230;9.220;2023-09-19T12:38:10;1.70;;;1.10;;
17259;SDS011;8746;49.230;9.220;2023-09-19T12:40:37;2.13;;;1.08;;
17259;SDS011;8746;49.230;9.220;2023-09-19T12:43:03;2.85;;;1.17;;
17259;SDS011;8746;49.230;9.220;2023-09-19T12:45:32;2.03;;;1.27;;
17259;SDS011;8746;49.230;9.220;2023-09-19T12:48:19;2.78;;;1.17;;
17259;SDS011;8746;49.230;9.220;2023-09-19T12:51:09;2.47;;;1.48;;
17259;SDS011;8746;49.230;9.220;2023-09-19T12:56:16;1.10;;;1.00;;
17259;SDS011;8746;49.230;9.220;2023-09-19T12:58:55;1.30;;;1.08;;
17259;SDS011;8746;49.230;9.220;2023-09-19T13:01:23;1.70;;;0.95;;
17259;SDS011;8746;49.230;9.220;2023-09-19T13:06:44;2.35;;;1.10;;
17259;SDS011;8746;49.230;9.220;2023-09-19T13:09:14;2.03;;;1.00;;
17259;SDS011;8746;49.230;9.220;2023-09-19T13:11:40;2.20;;;1.20;;
17259;SDS011;8746;49.230;9.220;2023-09-19T13:14:14;1.98;;;1.30;;
17259;SDS011;8746;49.230;9.220;2023-09-19T13:16:59;1.30;;;1.00;;
17259;SDS011;8746;49.230;9.220;2023-09-19T13:19:39;1.23;;;0.98;;
17259;SDS011;8746;49.230;9.220;2023-09-19T13:25:03;1.63;;;1.20;;
17259;SDS011;8746;49.230;9.220;2023-09-19T13:27:29;2.45;;;1.10;;
17259;SDS011;8746;49.230;9.220;2023-09-19T13:29:54;1.20;;;1.00;;
17259;SDS011;8746;49.230;9.220;2023-09-19T13:32:20;2.67;;;1.02;;
17259;SDS011;8746;49.230;9.220;2023-09-19T13:34:45;1.25;;;1.10;;
17259;SDS011;8746;49.230;9.220;2023-09-19T13:37:10;2.03;;;0.93;;
17259;SDS011;8746;49.230;9.220;2023-09-19T13:39:38;2.17;;;1.20;;
17259;SDS011;8746;49.230;9.220;2023-09-19T13:42:07;4.03;;;1.55;;
17259;SDS011;8746;49.230;9.220;2023-09-19T13:44:36;2.65;;;1.10;;
17259;SDS011;8746;49.230;9.220;2023-09-19T13:47:02;1.85;;;1.00;;
17259;SDS011;8746;49.230;9.220;2023-09-19T13:49:31;2.40;;;1.10;;
17259;SDS011;8746;49.230;9.220;2023-09-19T13:51:57;3.65;;;0.93;;
17259;SDS011;8746;49.230;9.220;2023-09-19T13:54:23;1.10;;;0.90;;
17259;SDS011;8746;49.230;9.220;2023-09-19T13:56:48;2.63;;;1.10;;
17259;SDS011;8746;49.230;9.220;2023-09-19T13:59:13;1.08;;;0.90;;
17259;SDS011;8746;49.230;9.220;2023-09-19T14:01:39;2.92;;;1.02;;
17259;SDS011;8746;49.230;9.220;2023-09-19T14:04:04;1.17;;;1.08;;
17259;SDS011;8746;49.230;9.220;2023-09-19T14:06:30;2.15;;;1.15;;
17259;SDS011;8746;49.230;9.220;2023-09-19T14:08:56;2.85;;;1.02;;
17259;SDS011;8746;49.230;9.220;2023-09-19T14:11:21;1.00;;;0.88;;
17259;SDS011;8746;49.230;9.220;2023-09-19T14:13:46;1.52;;;1.13;;
17259;SDS011;8746;49.230;9.220;2023-09-19T14:16:13;2.05;;;0.93;;
17259;SDS011;8746;49.230;9.220;2023-09-19T14:18:39;1.00;;;1.00;;
17259;SDS011;8746;49.230;9.220;2023-09-19T14:21:05;1.65;;;1.15;;
17259;SDS011;8746;49.230;9.220;2023-09-19T14:23:40;1.85;;;1.10;;
17259;SDS011;8746;49.230;9.220;2023-09-19T14:26:07;0.95;;;0.88;;
17259;SDS011;8746;49.230;9.220;2023-09-19T14:28:34;1.45;;;1.17;;
17259;SDS011;8746;49.230;9.220;2023-09-19T14:31:06;2.38;;;1.10;;
17259;SDS011;8746;49.230;9.220;2023-09-19T14:33:32;2.97;;;1.05;;
17259;SDS011;8746;49.230;9.220;2023-09-19T14:35:58;1.95;;;1.00;;
17259;SDS011;8746;49.230;9.220;2023-09-19T14:38:23;2.15;;;1.10;;
17259;SDS011;8746;49.230;9.220;2023-09-19T14:40:48;2.17;;;1.20;;
17259;SDS011;8746;49.230;9.220;2023-09-19T14:43:15;1.30;;;1.20;;
17259;SDS011;8746;49.230;9.220;2023-09-19T14:45:40;1.38;;;1.10;;
17259;SDS011;8746;49.230;9.220;2023-09-19T14:48:06;1.40;;;1.15;;
17259;SDS011;8746;49.230;9.220;2023-09-19T14:50:32;2.13;;;0.93;;
17259;SDS011;8746;49.230;9.220;2023-09-19T14:52:58;0.95;;;0.90;;
17259;SDS011;8746;49.230;9.220;2023-09-19T14:55:26;1.35;;;1.00;;
17259;SDS011;8746;49.230;9.220;2023-09-19T14:57:54;2.95;;;1.10;;
17259;SDS011;8746;49.230;9.220;2023-09-19T15:00:21;1.52;;;0.98;;
17259;SDS011;8746;49.230;9.220;2023-09-19T15:02:48;2.08;;;1.35;;
17259;SDS011;8746;49.230;9.220;2023-09-19T15:05:15;2.03;;;1.10;;
17259;SDS011;8746;49.230;9.220;2023-09-19T15:07:41;4.20;;;2.55;;
17259;SDS011;8746;49.230;9.220;2023-09-19T15:10:06;6.65;;;5.45;;
17259;SDS011;8746;49.230;9.220;2023-09-19T15:12:35;7.25;;;5.18;;
17259;SDS011;8746;49.230;9.220;2023-09-19T15:15:02;4.90;;;4.40;;
17259;SDS011;8746;49.230;9.220;2023-09-19T15:17:30;7.25;;;5.65;;
17259;SDS011;8746;49.230;9.220;2023-09-19T15:19:56;2.85;;;2.60;;
17259;SDS011;8746;49.230;9.220;2023-09-19T15:22:21;1.52;;;1.30;;
17259;SDS011;8746;49.230;9.220;2023-09-19T15:24:47;2.88;;;1.38;;
17259;SDS011;8746;49.230;9.220;2023-09-19T15:27:12;3.20;;;1.33;;
17259;SDS011;8746;49.230;9.220;2023-09-19T15:29:38;0.95;;;0.95;;
17259;SDS011;8746;49.230;9.220;2023-09-19T15:32:04;2.88;;;1.10;;
17259;SDS011;8746;49.230;9.220;2023-09-19T15:34:29;1.88;;;0.90;;
17259;SDS011;8746;49.230;9.220;2023-09-19T15:36:55;2.70;;;1.10;;
17259;SDS011;8746;49.230;9.220;2023-09-19T15:39:22;1.58;;;0.95;;
17259;SDS011;8746;49.230;9.220;2023-09-19T15:41:47;1.23;;;1.00;;
17259;SDS011;8746;49.230;9.220;2023-09-19T15:44:16;1.63;;;1.10;;
17259;SDS011;8746;49.230;9.220;2023-09-19T15:46:42;2.33;;;1.02;;
17259;SDS011;8746;49.230;9.220;2023-09-19T15:49:09;2.17;;;0.90;;
17259;SDS011;8746;49.230;9.220;2023-09-19T15:51:35;2.15;;;0.82;;
17259;SDS011;8746;49.230;9.220;2023-09-19T15:54:08;1.30;;;1.02;;
17259;SDS011;8746;49.230;9.220;2023-09-19T15:56:35;1.83;;;1.13;;